createdAt,value
2023-03-22T00:00:04.433Z,12
2023-03-22T00:10:04.454Z,12
2023-03-22T00:20:04.572Z,12
2023-03-22T00:30:04.402Z,12
2023-03-22T00:40:04.551Z,12
2023-03-22T00:50:04.402Z,12
2023-03-22T01:00:04.524Z,12
2023-03-22T01:10:04.598Z,12
2023-03-22T01:20:04.525Z,11.5
2023-03-22T01:30:04.594Z,11.5
2023-03-22T01:40:04.510Z,12
2023-03-22T01:50:04.589Z,11.5
2023-03-22T02:00:04.503Z,11.5
2023-03-22T02:10:04.579Z,11.5
2023-03-22T02:20:04.702Z,11.5
2023-03-22T02:30:04.588Z,11.5
2023-03-22T02:40:04.711Z,11.5
2023-03-22T02:50:04.577Z,11.5
2023-03-22T03:00:04.688Z,11.5
2023-03-22T03:10:04.552Z,11.5
2023-03-22T03:20:04.698Z,11.5
2023-03-22T03:30:04.562Z,11.5
2023-03-22T03:40:04.701Z,11.5
2023-03-22T03:50:04.575Z,12
2023-03-22T04:00:04.701Z,11.5
2023-03-22T04:10:04.780Z,12
2023-03-22T04:20:05.818Z,12
2023-03-22T04:30:04.771Z,12
2023-03-22T04:40:04.738Z,12
2023-03-22T04:50:04.752Z,12
2023-03-22T05:00:04.742Z,11.5
2023-03-22T05:10:04.760Z,11.5
2023-03-22T05:20:04.878Z,11.5
2023-03-22T05:30:04.751Z,11.5
2023-03-22T05:40:04.883Z,11.5
2023-03-22T05:50:04.762Z,11
2023-03-22T06:00:04.896Z,10.5
2023-03-22T06:10:04.743Z,10.5
2023-03-22T06:20:04.869Z,10.5
2023-03-22T06:30:04.751Z,10.5
2023-03-22T06:40:04.863Z,10.5
2023-03-22T06:50:04.934Z,10.5
2023-03-22T07:00:04.851Z,11
2023-03-22T07:10:04.991Z,15
2023-03-22T07:20:04.868Z,16
2023-03-22T07:30:04.946Z,17.5
2023-03-22T07:40:04.863Z,13.5
2023-03-22T07:50:04.941Z,12.5
2023-03-22T08:00:04.871Z,12.5
2023-03-22T08:10:04.946Z,13
2023-03-22T08:20:05.061Z,17
2023-03-22T08:30:04.929Z,17.5
2023-03-22T08:40:05.108Z,17
2023-03-22T08:50:04.920Z,18
2023-03-22T09:00:05.043Z,17.5
2023-03-22T09:10:04.940Z,18
2023-03-22T09:20:12.308Z,19
2023-03-22T09:30:04.938Z,19
2023-03-22T09:40:05.051Z,19.5
2023-03-22T09:50:04.957Z,19.5
2023-03-22T10:00:05.099Z,17.5
2023-03-22T10:10:05.148Z,14.5
2023-03-22T10:20:05.061Z,14.5
2023-03-22T10:30:05.126Z,14
2023-03-22T10:40:05.101Z,14
2023-03-22T10:50:05.149Z,14
2023-03-22T11:00:05.067Z,15
2023-03-22T11:10:05.141Z,14.5
2023-03-22T11:20:07.172Z,15
2023-03-22T11:30:05.166Z,15
2023-03-22T11:40:05.225Z,16
2023-03-22T11:50:05.237Z,16
2023-03-22T12:00:05.135Z,16.5
2023-03-22T12:10:05.180Z,16
2023-03-22T12:20:05.218Z,16.5
2023-03-22T12:30:05.195Z,16.5
2023-03-22T12:40:05.322Z,16.5
2023-03-22T12:50:05.184Z,16
2023-03-22T13:00:05.361Z,16
2023-03-22T13:10:05.314Z,16.5
2023-03-22T13:20:05.578Z,15.5
2023-03-22T13:30:05.194Z,15.5
2023-03-22T13:40:05.347Z,15.5
2023-03-22T13:50:07.258Z,16
2023-03-22T14:00:11.466Z,16
2023-03-22T14:10:05.196Z,16
2023-03-22T14:20:05.313Z,16
2023-03-22T14:50:05.418Z,15.5
2023-03-22T15:00:05.280Z,15.5
2023-03-22T15:10:05.429Z,15.5
2023-03-22T15:20:05.343Z,15.5
2023-03-22T15:30:05.416Z,15.5
2023-03-22T15:40:05.483Z,15.5
2023-03-22T15:50:05.384Z,15.5
2023-03-22T16:00:05.458Z,15.5
2023-03-22T16:10:05.397Z,16
2023-03-22T16:20:05.597Z,15.5
2023-03-22T16:30:05.564Z,15.5
2023-03-22T16:40:05.534Z,15.5
2023-03-22T16:50:06.027Z,15
2023-03-22T17:00:06.434Z,14.5
2023-03-22T17:10:06.197Z,14.5
2023-03-22T17:20:05.565Z,14.5
2023-03-22T17:30:06.556Z,14.5
2023-03-22T17:50:05.495Z,14.5
2023-03-22T18:00:05.552Z,14.5
2023-03-22T18:10:05.508Z,14.5
2023-03-22T18:20:14.767Z,14
2023-03-22T18:30:05.488Z,13.5
2023-03-22T18:50:05.678Z,13.5
2023-03-22T19:00:06.101Z,13.5
2023-03-22T19:10:06.161Z,13.5
2023-03-22T19:20:06.426Z,12.5
2023-03-22T19:30:06.565Z,12.5
2023-03-22T19:40:59.580Z,12.5
2023-03-22T19:50:05.691Z,12
2023-03-22T20:00:37.122Z,11.5
2023-03-22T20:10:05.706Z,11.5
2023-03-22T20:20:05.561Z,11.5
2023-03-22T20:30:05.680Z,11.5
2023-03-22T20:40:05.750Z,11.5
2023-03-22T20:50:05.746Z,11.5
2023-03-22T21:00:06.452Z,11.5
2023-03-22T21:10:05.764Z,11.5
2023-03-22T21:20:05.779Z,11.5
2023-03-22T21:30:05.765Z,11
2023-03-22T21:40:05.799Z,10
2023-03-22T21:50:05.892Z,9.5
2023-03-22T22:00:05.791Z,10
2023-03-22T22:10:05.712Z,10
2023-03-22T22:20:06.092Z,10
2023-03-22T22:30:05.975Z,10.5
2023-03-22T22:40:05.777Z,10.5
2023-03-22T22:50:05.921Z,11
2023-03-22T23:00:05.850Z,11
2023-03-22T23:10:05.769Z,10.5
2023-03-22T23:20:05.848Z,11
2023-03-22T23:30:05.762Z,10.5
2023-03-22T23:40:05.850Z,10.5
2023-03-22T23:50:05.973Z,10.5
